createdAt,value
2022-09-20T00:00:46.593Z,2.45
2022-09-20T00:03:14.113Z,2.00
2022-09-20T00:05:43.051Z,2.33
2022-09-20T00:08:13.133Z,2.17
2022-09-20T00:10:39.935Z,2.50
2022-09-20T00:13:08.427Z,1.90
2022-09-20T00:15:39.764Z,1.85
2022-09-20T00:18:06.066Z,2.22
2022-09-20T00:20:32.370Z,2.35
2022-09-20T00:22:58.658Z,2.30
2022-09-20T00:25:24.979Z,2.20
2022-09-20T00:27:51.287Z,2.03
2022-09-20T00:30:17.611Z,2.65
2022-09-20T00:32:43.889Z,2.20
2022-09-20T00:35:10.318Z,1.90
2022-09-20T00:37:44.091Z,2.75
2022-09-20T00:40:15.418Z,2.10
2022-09-20T00:42:41.794Z,2.40
2022-09-20T00:45:19.567Z,2.10
2022-09-20T00:48:25.073Z,2.47
2022-09-20T00:50:57.819Z,1.75
2022-09-20T00:53:31.800Z,2.17
2022-09-20T00:56:03.605Z,2.00
2022-09-20T00:58:35.721Z,2.13
2022-09-20T01:01:04.575Z,2.58
2022-09-20T01:03:32.717Z,2.33
2022-09-20T01:06:03.194Z,2.05
2022-09-20T01:08:30.925Z,2.13
2022-09-20T01:10:57.474Z,1.67
2022-09-20T01:13:23.783Z,2.35
2022-09-20T01:15:51.691Z,2.00
2022-09-20T01:18:20.491Z,2.13
2022-09-20T01:20:47.777Z,2.17
2022-09-20T01:23:32.252Z,2.55
2022-09-20T01:26:18.575Z,2.58
2022-09-20T01:28:49.972Z,2.40
2022-09-20T01:31:25.240Z,2.40
2022-09-20T01:34:06.376Z,2.47
2022-09-20T01:37:09.299Z,2.50
2022-09-20T01:40:01.284Z,2.20
2022-09-20T01:42:36.062Z,2.70
2022-09-20T01:45:20.809Z,1.90
2022-09-20T01:47:53.519Z,2.45
2022-09-20T01:50:29.618Z,2.50
2022-09-20T01:53:16.299Z,1.83
2022-09-20T01:56:03.933Z,2.08
2022-09-20T01:59:06.958Z,1.83
2022-09-20T02:01:53.176Z,2.42
2022-09-20T02:04:39.781Z,2.08
2022-09-20T02:07:28.632Z,1.90
2022-09-20T02:10:10.205Z,1.90
2022-09-20T02:12:53.011Z,2.25
2022-09-20T02:15:44.057Z,2.17
2022-09-20T02:18:35.231Z,2.13
2022-09-20T02:21:38.985Z,1.75
2022-09-20T02:24:28.833Z,1.90
2022-09-20T02:27:21.832Z,2.10
2022-09-20T02:29:53.017Z,2.30
2022-09-20T02:32:44.350Z,2.25
2022-09-20T02:35:19.651Z,2.33
2022-09-20T02:37:59.853Z,2.38
2022-09-20T02:40:33.628Z,2.13
2022-09-20T02:43:27.907Z,2.42
2022-09-20T02:46:12.633Z,1.98
2022-09-20T02:48:44.137Z,1.95
2022-09-20T02:51:24.410Z,2.05
2022-09-20T02:54:09.210Z,2.63
2022-09-20T02:56:51.161Z,2.15
2022-09-20T02:59:31.752Z,1.85
2022-09-20T03:02:24.741Z,1.63
2022-09-20T03:05:16.834Z,2.80
2022-09-20T03:07:58.098Z,2.05
2022-09-20T03:10:37.381Z,2.20
2022-09-20T03:13:15.694Z,2.20
2022-09-20T03:16:08.801Z,1.88
2022-09-20T03:19:12.891Z,1.98
2022-09-20T03:22:11.927Z,2.50
2022-09-20T03:25:17.689Z,1.98
2022-09-20T03:28:03.650Z,1.50
2022-09-20T03:30:51.222Z,2.03
2022-09-20T03:33:33.595Z,1.98
2022-09-20T03:36:12.024Z,2.25
2022-09-20T03:38:53.079Z,1.98
2022-09-20T03:42:01.388Z,2.45
2022-09-20T03:44:45.705Z,2.53
2022-09-20T03:47:34.952Z,1.90
2022-09-20T03:50:03.922Z,2.15
2022-09-20T03:53:07.928Z,2.05
2022-09-20T03:56:00.781Z,1.80
2022-09-20T03:58:54.237Z,1.90
2022-09-20T04:01:42.008Z,2.00
2022-09-20T04:04:33.262Z,2.17
2022-09-20T04:07:15.762Z,1.70
2022-09-20T04:09:48.121Z,2.67
2022-09-20T04:12:48.715Z,2.92
2022-09-20T04:15:45.651Z,2.38
2022-09-20T04:18:38.346Z,2.42
2022-09-20T04:21:16.848Z,2.67
2022-09-20T04:23:47.394Z,2.13
2022-09-20T04:26:20.278Z,2.50
2022-09-20T04:28:53.478Z,2.28
2022-09-20T04:31:32.149Z,1.90
2022-09-20T04:34:01.797Z,2.42
2022-09-20T04:36:57.373Z,2.83
2022-09-20T04:39:49.175Z,2.60
2022-09-20T04:42:58.910Z,1.92
2022-09-20T04:46:00.598Z,2.17
2022-09-20T04:48:46.290Z,2.55
2022-09-20T04:51:57.333Z,2.28
2022-09-20T04:54:44.707Z,2.72
2022-09-20T04:57:26.572Z,2.53
2022-09-20T05:00:04.544Z,2.25
2022-09-20T05:03:03.871Z,3.28
2022-09-20T05:05:51.360Z,2.50
2022-09-20T05:08:48.714Z,2.42
2022-09-20T05:11:47.484Z,2.85
2022-09-20T05:14:51.753Z,3.10
2022-09-20T05:17:35.496Z,2.03
2022-09-20T05:20:53.940Z,2.58
2022-09-20T05:23:38.797Z,2.45
2022-09-20T05:26:33.427Z,3.05
2022-09-20T05:29:07.924Z,3.45
2022-09-20T05:31:46.167Z,2.38
2022-09-20T05:34:52.025Z,2.97
2022-09-20T05:37:37.590Z,2.83
2022-09-20T05:40:22.718Z,3.00
2022-09-20T05:43:08.774Z,2.88
2022-09-20T05:46:04.393Z,3.10
2022-09-20T05:51:24.947Z,2.72
2022-09-20T05:56:55.161Z,3.13
2022-09-20T05:59:37.527Z,2.50
2022-09-20T06:02:28.046Z,2.58
2022-09-20T06:05:15.598Z,2.25
2022-09-20T06:07:54.955Z,3.13
2022-09-20T06:10:27.287Z,3.20
2022-09-20T06:13:14.061Z,2.17
2022-09-20T06:16:02.005Z,5.95
2022-09-20T06:18:44.578Z,5.82
2022-09-20T06:21:31.890Z,5.68
2022-09-20T06:24:00.649Z,3.95
2022-09-20T06:26:36.572Z,3.75
2022-09-20T06:29:06.539Z,4.20
2022-09-20T06:31:33.075Z,2.92
2022-09-20T06:34:14.840Z,2.63
2022-09-20T06:36:48.619Z,3.05
2022-09-20T06:39:20.549Z,2.50
2022-09-20T06:41:46.904Z,2.58
2022-09-20T06:44:13.199Z,2.90
2022-09-20T06:46:39.510Z,2.40
2022-09-20T06:49:05.801Z,2.42
2022-09-20T06:51:37.494Z,2.75
2022-09-20T06:54:05.765Z,2.53
2022-09-20T06:56:35.029Z,2.40
2022-09-20T06:59:01.320Z,1.80
2022-09-20T07:01:30.636Z,2.08
2022-09-20T07:03:57.845Z,2.85
2022-09-20T07:06:24.181Z,2.13
2022-09-20T07:08:50.488Z,2.28
2022-09-20T07:11:17.526Z,2.25
2022-09-20T07:13:45.216Z,2.30
2022-09-20T07:16:13.405Z,2.67
2022-09-20T07:18:40.093Z,2.10
2022-09-20T07:21:07.044Z,2.20
2022-09-20T07:23:33.358Z,2.50
2022-09-20T07:25:59.659Z,2.40
2022-09-20T07:28:27.671Z,2.40
2022-09-20T07:30:54.200Z,2.78
2022-09-20T07:33:20.689Z,2.45
2022-09-20T07:35:50.301Z,3.03
2022-09-20T07:38:16.605Z,2.63
2022-09-20T07:40:43.204Z,2.45
2022-09-20T07:43:09.503Z,2.20
2022-09-20T07:45:36.589Z,2.50
2022-09-20T07:48:02.934Z,2.85
2022-09-20T07:50:29.220Z,2.42
2022-09-20T07:52:56.402Z,2.05
2022-09-20T07:55:22.709Z,2.15
2022-09-20T07:57:48.989Z,2.75
2022-09-20T08:00:15.418Z,2.45
2022-09-20T08:02:41.723Z,3.08
2022-09-20T08:05:08.387Z,2.17
2022-09-20T08:07:34.739Z,2.50
2022-09-20T08:10:01.079Z,2.85
2022-09-20T08:15:13.804Z,2.38
2022-09-20T08:17:40.253Z,2.22
2022-09-20T08:20:07.181Z,2.53
2022-09-20T08:22:33.536Z,2.10
2022-09-20T08:24:59.850Z,2.17
2022-09-20T08:27:26.190Z,2.05
2022-09-20T08:29:52.512Z,2.90
2022-09-20T08:32:18.850Z,2.17
2022-09-20T08:34:49.408Z,3.03
2022-09-20T08:37:15.894Z,1.73
2022-09-20T08:39:58.335Z,2.13
2022-09-20T08:42:37.683Z,2.50
2022-09-20T08:45:22.324Z,2.30
2022-09-20T08:47:58.860Z,2.10
2022-09-20T08:50:25.703Z,2.63
2022-09-20T08:53:00.121Z,2.13
2022-09-20T08:55:28.735Z,1.95
2022-09-20T08:57:57.298Z,2.22
2022-09-20T09:00:26.026Z,1.95
2022-09-20T09:02:55.995Z,2.08
2022-09-20T09:05:37.307Z,1.80
2022-09-20T09:08:10.320Z,1.88
2022-09-20T09:10:43.090Z,1.92
2022-09-20T09:13:20.500Z,1.85
2022-09-20T09:15:54.229Z,2.50
2022-09-20T09:18:20.591Z,1.77
2022-09-20T09:20:47.389Z,1.80
2022-09-20T09:23:23.795Z,3.67
2022-09-20T09:25:50.164Z,3.22
2022-09-20T09:28:20.467Z,3.33
2022-09-20T09:30:47.322Z,2.45
2022-09-20T09:33:16.346Z,2.00
2022-09-20T09:35:43.907Z,2.65
2022-09-20T09:38:19.709Z,1.40
2022-09-20T09:40:52.064Z,2.22
2022-09-20T09:43:27.242Z,1.73
2022-09-20T09:45:54.978Z,1.65
2022-09-20T09:48:30.267Z,1.98
2022-09-20T09:51:14.538Z,2.50
2022-09-20T09:53:42.509Z,1.77
2022-09-20T09:56:30.458Z,2.13
2022-09-20T09:59:11.697Z,1.20
2022-09-20T10:01:58.686Z,1.65
2022-09-20T10:04:37.186Z,1.25
2022-09-20T10:07:14.286Z,1.60
2022-09-20T10:09:49.768Z,1.50
2022-09-20T10:12:53.289Z,1.35
2022-09-20T10:15:41.574Z,1.00
2022-09-20T10:18:31.817Z,1.25
2022-09-20T10:21:16.990Z,1.92
2022-09-20T10:24:05.072Z,1.10
2022-09-20T10:27:01.860Z,1.38
2022-09-20T10:29:52.998Z,1.25
2022-09-20T10:32:27.996Z,1.40
2022-09-20T10:35:03.502Z,1.48
2022-09-20T10:37:49.504Z,1.13
2022-09-20T10:40:16.059Z,1.63
2022-09-20T10:42:48.988Z,1.45
2022-09-20T10:45:55.990Z,1.42
2022-09-20T10:48:30.891Z,1.10
2022-09-20T10:51:21.655Z,1.65
2022-09-20T10:54:14.855Z,1.70
2022-09-20T10:56:46.505Z,1.50
2022-09-20T10:59:35.102Z,1.55
2022-09-20T11:02:39.221Z,1.10
2022-09-20T11:05:16.509Z,1.10
2022-09-20T11:07:56.646Z,1.20
2022-09-20T11:10:33.554Z,1.25
2022-09-20T11:13:03.960Z,1.45
2022-09-20T11:15:39.398Z,0.93
2022-09-20T11:18:29.413Z,1.20
2022-09-20T11:21:20.926Z,1.08
2022-09-20T11:24:11.906Z,1.30
2022-09-20T11:26:44.776Z,1.15
2022-09-20T11:29:24.397Z,1.30
2022-09-20T11:31:53.464Z,1.63
2022-09-20T11:34:29.659Z,1.45
2022-09-20T11:36:59.180Z,1.00
2022-09-20T11:39:44.250Z,1.33
2022-09-20T11:42:16.185Z,1.15
2022-09-20T11:44:43.322Z,1.00
2022-09-20T11:47:42.843Z,1.00
2022-09-20T11:50:36.724Z,1.13
2022-09-20T11:53:36.478Z,0.95
2022-09-20T11:56:17.348Z,1.08
2022-09-20T11:58:53.157Z,0.57
2022-09-20T12:01:40.634Z,0.70
2022-09-20T12:04:31.854Z,0.55
2022-09-20T12:07:10.652Z,1.10
2022-09-20T12:09:43.694Z,1.13
2022-09-20T12:12:31.428Z,0.80
2022-09-20T12:15:01.412Z,0.95
2022-09-20T12:17:57.021Z,0.88
2022-09-20T12:23:37.456Z,0.68
2022-09-20T12:26:20.478Z,0.82
2022-09-20T12:28:50.794Z,1.00
2022-09-20T12:31:23.208Z,0.98
2022-09-20T12:34:06.960Z,0.95
2022-09-20T12:36:36.819Z,1.02
2022-09-20T12:39:22.405Z,1.08
2022-09-20T12:42:11.501Z,1.08
2022-09-20T12:44:37.857Z,0.90
2022-09-20T12:47:10.331Z,1.10
2022-09-20T12:49:49.176Z,0.60
2022-09-20T12:52:24.709Z,0.63
2022-09-20T12:54:52.899Z,1.00
2022-09-20T12:57:30.556Z,0.63
2022-09-20T12:59:59.230Z,1.10
2022-09-20T13:03:02.326Z,0.80
2022-09-20T13:05:34.494Z,0.80
2022-09-20T13:08:14.287Z,1.10
2022-09-20T13:10:59.442Z,1.23
2022-09-20T13:16:35.788Z,0.77
2022-09-20T13:19:06.096Z,1.30
2022-09-20T13:21:36.294Z,1.10
2022-09-20T13:24:03.479Z,0.90
2022-09-20T13:26:35.629Z,0.98
2022-09-20T13:29:03.164Z,1.35
2022-09-20T13:31:31.819Z,0.93
2022-09-20T13:34:21.410Z,1.10
2022-09-20T13:36:55.353Z,0.93
2022-09-20T13:39:27.635Z,1.05
2022-09-20T13:41:54.018Z,1.20
2022-09-20T13:44:20.425Z,3.33
2022-09-20T13:46:46.745Z,1.08
2022-09-20T13:49:18.494Z,1.23
2022-09-20T13:51:44.852Z,1.02
2022-09-20T13:54:37.629Z,1.33
2022-09-20T13:57:10.941Z,1.10
2022-09-20T13:59:43.779Z,1.10
2022-09-20T14:02:27.223Z,0.93
2022-09-20T14:04:55.601Z,0.70
2022-09-20T14:07:24.311Z,1.70
2022-09-20T14:09:50.656Z,1.10
2022-09-20T14:12:17.133Z,1.25
2022-09-20T14:14:44.472Z,0.82
2022-09-20T14:17:16.294Z,1.40
2022-09-20T14:19:43.837Z,1.08
2022-09-20T14:22:21.278Z,1.00
2022-09-20T14:25:19.763Z,1.33
2022-09-20T14:27:46.082Z,1.35
2022-09-20T14:30:33.410Z,1.00
2022-09-20T14:32:59.827Z,1.00
2022-09-20T14:35:26.485Z,0.93
2022-09-20T14:37:59.341Z,0.80
2022-09-20T14:40:40.509Z,1.40
2022-09-20T14:43:37.129Z,1.52
2022-09-20T14:46:16.992Z,1.08
2022-09-20T14:48:43.639Z,0.90
2022-09-20T14:51:15.668Z,0.90
2022-09-20T14:53:43.250Z,0.80
2022-09-20T14:56:11.902Z,0.90
2022-09-20T14:59:01.179Z,0.90
2022-09-20T15:01:27.539Z,1.10
2022-09-20T15:03:56.401Z,1.15
2022-09-20T15:06:23.125Z,1.23
2022-09-20T15:08:49.507Z,1.90
2022-09-20T15:11:19.216Z,1.85
2022-09-20T15:13:45.924Z,1.40
2022-09-20T15:16:18.399Z,1.00
2022-09-20T15:18:44.929Z,1.17
2022-09-20T15:21:11.338Z,1.20
2022-09-20T15:23:38.290Z,1.25
2022-09-20T15:26:05.453Z,1.00
2022-09-20T15:28:33.641Z,1.08
2022-09-20T15:30:59.948Z,1.33
2022-09-20T15:33:30.562Z,1.25
2022-09-20T15:35:57.320Z,1.52
2022-09-20T15:38:27.512Z,1.25
2022-09-20T15:40:56.956Z,1.45
2022-09-20T15:43:24.616Z,1.33
2022-09-20T15:46:16.251Z,0.88
2022-09-20T15:48:42.814Z,1.20
2022-09-20T15:51:10.632Z,1.20
2022-09-20T15:53:38.835Z,1.02
2022-09-20T15:56:17.246Z,1.10
2022-09-20T15:58:46.011Z,0.90
2022-09-20T16:01:14.848Z,1.00
2022-09-20T16:03:41.170Z,0.80
2022-09-20T16:06:10.988Z,1.13
2022-09-20T16:08:42.340Z,0.90
2022-09-20T16:11:13.459Z,1.17
2022-09-20T16:13:40.473Z,1.92
2022-09-20T16:16:09.201Z,1.23
2022-09-20T16:18:39.216Z,1.27
2022-09-20T16:21:07.217Z,1.95
2022-09-20T16:23:33.500Z,1.75
2022-09-20T16:25:59.853Z,2.45
2022-09-20T16:28:26.626Z,1.20
2022-09-20T16:30:57.065Z,1.75
2022-09-20T16:33:23.524Z,0.98
2022-09-20T16:35:50.612Z,1.17
2022-09-20T16:38:20.030Z,1.13
2022-09-20T16:40:50.626Z,1.13
2022-09-20T16:43:17.948Z,1.00
2022-09-20T16:45:44.849Z,2.00
2022-09-20T16:48:11.400Z,1.60
2022-09-20T16:50:37.708Z,1.30
2022-09-20T16:53:07.366Z,2.00
2022-09-20T16:55:33.665Z,2.45
2022-09-20T16:58:08.868Z,2.42
2022-09-20T17:00:35.241Z,1.58
2022-09-20T17:03:01.649Z,1.55
2022-09-20T17:05:28.113Z,1.17
2022-09-20T17:07:54.527Z,1.67
2022-09-20T17:10:41.128Z,1.20
2022-09-20T17:13:09.971Z,1.83
2022-09-20T17:15:36.748Z,2.00
2022-09-20T17:18:03.362Z,1.90
2022-09-20T17:20:29.663Z,2.20
2022-09-20T17:22:59.892Z,2.13
2022-09-20T17:25:26.499Z,4.13
2022-09-20T17:28:03.828Z,2.45
2022-09-20T17:30:30.777Z,2.17
2022-09-20T17:32:57.380Z,3.50
2022-09-20T17:35:23.864Z,2.83
2022-09-20T17:37:50.450Z,3.40
2022-09-20T17:40:16.811Z,2.70
2022-09-20T17:42:44.025Z,3.03
2022-09-20T17:45:10.609Z,3.00
2022-09-20T17:47:39.960Z,3.17
2022-09-20T17:50:06.555Z,3.25
2022-09-20T17:52:36.140Z,3.50
2022-09-20T17:55:02.433Z,4.18
2022-09-20T17:57:29.085Z,4.18
2022-09-20T17:59:55.831Z,2.47
2022-09-20T18:02:25.413Z,1.63
2022-09-20T18:04:52.565Z,1.70
2022-09-20T18:07:22.259Z,1.80
2022-09-20T18:09:48.592Z,1.20
2022-09-20T18:12:18.885Z,1.10
2022-09-20T18:14:50.082Z,1.27
2022-09-20T18:17:16.402Z,1.35
2022-09-20T18:19:42.704Z,1.40
2022-09-20T18:22:09.004Z,1.30
2022-09-20T18:24:41.481Z,1.38
2022-09-20T18:27:07.789Z,1.30
2022-09-20T18:29:34.081Z,1.60
2022-09-20T18:32:00.474Z,1.90
2022-09-20T18:34:28.051Z,2.95
2022-09-20T18:36:56.846Z,2.15
2022-09-20T18:39:24.993Z,2.35
2022-09-20T18:41:52.014Z,2.55
2022-09-20T18:44:19.183Z,2.22
2022-09-20T18:46:46.777Z,2.13
2022-09-20T18:49:14.198Z,2.10
2022-09-20T18:51:41.731Z,2.03
2022-09-20T18:54:09.723Z,1.67
2022-09-20T18:56:38.447Z,2.10
2022-09-20T18:59:07.925Z,2.25
2022-09-20T19:02:05.272Z,2.42
2022-09-20T19:05:16.480Z,2.67
2022-09-20T19:07:58.623Z,2.42
2022-09-20T19:10:58.905Z,2.60
2022-09-20T19:13:43.595Z,2.90
2022-09-20T19:16:28.712Z,2.65
2022-09-20T19:19:20.113Z,3.00
2022-09-20T19:21:57.317Z,2.42
2022-09-20T19:25:01.001Z,2.58
2022-09-20T19:27:28.139Z,3.28
2022-09-20T19:29:54.894Z,2.83
2022-09-20T19:32:21.492Z,3.78
2022-09-20T19:34:51.646Z,2.47
2022-09-20T19:37:44.157Z,2.65
2022-09-20T19:40:33.699Z,3.42
2022-09-20T19:43:15.822Z,3.00
2022-09-20T19:46:16.465Z,3.55
2022-09-20T19:49:02.449Z,3.17
2022-09-20T19:51:31.643Z,2.92
2022-09-20T19:53:58.090Z,3.08
2022-09-20T19:56:31.160Z,3.00
2022-09-20T19:58:57.745Z,3.20
2022-09-20T20:01:25.306Z,2.80
2022-09-20T20:03:54.886Z,2.55
2022-09-20T20:06:40.909Z,2.72
2022-09-20T20:09:15.411Z,2.58
2022-09-20T20:12:05.572Z,2.50
2022-09-20T20:15:02.495Z,2.72
2022-09-20T20:17:48.378Z,2.53
2022-09-20T20:20:28.800Z,2.13
2022-09-20T20:23:23.219Z,2.63
2022-09-20T20:26:05.531Z,2.65
2022-09-20T20:28:31.949Z,2.65
2022-09-20T20:31:00.239Z,3.90
2022-09-20T20:33:26.684Z,3.22
2022-09-20T20:35:54.483Z,3.97
2022-09-20T20:38:21.530Z,3.42
2022-09-20T20:40:47.822Z,3.67
2022-09-20T20:43:14.110Z,3.97
2022-09-20T20:45:49.515Z,3.67
2022-09-20T20:48:15.801Z,3.50
2022-09-20T20:50:42.088Z,4.10
2022-09-20T20:53:08.383Z,3.33
2022-09-20T20:55:34.670Z,3.50
2022-09-20T20:58:00.962Z,3.38
2022-09-20T21:00:28.077Z,3.20
2022-09-20T21:02:59.129Z,3.72
2022-09-20T21:05:26.950Z,3.90
2022-09-20T21:07:53.618Z,3.65
2022-09-20T21:10:20.474Z,3.80
2022-09-20T21:12:46.829Z,4.28
2022-09-20T21:15:13.187Z,4.47
2022-09-20T21:17:39.482Z,4.07
2022-09-20T21:20:06.209Z,3.53
2022-09-20T21:22:32.506Z,3.30
2022-09-20T21:24:58.806Z,3.60
2022-09-20T21:27:25.107Z,4.10
2022-09-20T21:29:51.402Z,4.00
2022-09-20T21:32:17.703Z,4.07
2022-09-20T21:34:44.050Z,4.32
2022-09-20T21:37:10.326Z,4.18
2022-09-20T21:39:36.608Z,4.88
2022-09-20T21:42:02.947Z,4.32
2022-09-20T21:44:29.246Z,4.57
2022-09-20T21:46:55.527Z,4.20
2022-09-20T21:49:21.818Z,4.53
2022-09-20T21:51:48.098Z,4.13
2022-09-20T21:54:14.395Z,4.18
2022-09-20T21:56:40.703Z,4.13
2022-09-20T21:59:07.034Z,3.97
2022-09-20T22:01:37.008Z,4.55
2022-09-20T22:04:09.341Z,4.40
2022-09-20T22:06:38.907Z,4.28
2022-09-20T22:09:10.732Z,4.15
2022-09-20T22:11:43.112Z,4.05
2022-09-20T22:14:10.800Z,4.57
2022-09-20T22:16:39.598Z,4.45
2022-09-20T22:19:07.976Z,4.55
2022-09-20T22:21:36.795Z,4.20
2022-09-20T22:24:05.937Z,4.70
2022-09-20T22:26:37.756Z,4.78
2022-09-20T22:29:04.858Z,4.50
2022-09-20T22:31:33.563Z,4.97
2022-09-20T22:34:01.906Z,4.95
2022-09-20T22:36:30.993Z,4.70
2022-09-20T22:38:57.322Z,4.43
2022-09-20T22:41:24.530Z,4.55
2022-09-20T22:43:50.945Z,4.63
2022-09-20T22:46:22.601Z,4.97
2022-09-20T22:48:49.339Z,5.45
2022-09-20T22:51:27.130Z,5.32
2022-09-20T22:53:53.637Z,5.70
2022-09-20T22:56:30.731Z,5.15
2022-09-20T22:58:59.520Z,5.00
2022-09-20T23:01:30.857Z,4.90
2022-09-20T23:04:05.625Z,5.38
2022-09-20T23:09:01.435Z,7.13
2022-09-20T23:11:29.151Z,5.70
2022-09-20T23:13:58.765Z,6.32
2022-09-20T23:16:27.291Z,6.10
2022-09-20T23:18:54.689Z,5.88
2022-09-20T23:21:21.364Z,5.88
2022-09-20T23:23:55.760Z,6.07
2022-09-20T23:26:23.229Z,5.88
2022-09-20T23:29:07.542Z,6.57
2022-09-20T23:31:35.671Z,6.40
2022-09-20T23:34:04.480Z,6.18
2022-09-20T23:36:34.595Z,6.78
2022-09-20T23:39:01.135Z,5.95
2022-09-20T23:41:28.444Z,6.30
2022-09-20T23:43:55.351Z,6.43
2022-09-20T23:46:23.001Z,5.90
2022-09-20T23:48:49.497Z,5.70
2022-09-20T23:51:18.411Z,5.63
2022-09-20T23:53:45.002Z,6.20
2022-09-20T23:56:12.726Z,6.80
2022-09-20T23:58:40.986Z,6.05
